Time;durP1;ratioP1;P1;durP2;ratioP2;P2;SDS_P1;SDS_P2;PMS_P1;PMS_P2;Temp;Humidity;BMP_temperature;BMP_pressure;BME280_temperature;BME280_humidity;BME280_pressure;Samples;Min_cycle;Max_cycle;Signal;HPM_P1;HPM_P2
2022/07/11 00:01:10;;;;;;;2.37;2.17;;;18.30;78.60;;;21.19;56.23;102155.69;5105119;28;20207;-64
2022/07/11 00:03:38;;;;;;;4.40;2.60;;;18.30;78.10;;;21.18;56.52;102156.72;5116268;28;20192;-64
2022/07/11 00:06:06;;;;;;;3.50;2.23;;;18.30;78.10;;;21.17;56.84;102155.06;5116031;28;20232;-64
2022/07/11 00:08:33;;;;;;;3.23;2.20;;;18.30;78.10;;;21.18;56.84;102155.91;5115640;28;20192;-64
2022/07/11 00:11:00;;;;;;;5.00;2.30;;;18.30;78.10;;;21.18;56.36;102151.34;5115156;28;20195;-64
2022/07/11 00:13:28;;;;;;;2.80;2.30;;;18.30;78.20;;;21.21;56.67;102156.28;5116129;28;20184;-64
2022/07/11 00:15:57;;;;;;;6.60;2.67;;;18.30;78.20;;;21.22;56.75;102152.59;5098565;28;20503;-64
2022/07/11 00:18:25;;;;;;;5.70;2.30;;;18.30;78.20;;;21.25;56.57;102157.50;5095640;28;20744;-64
2022/07/11 00:20:52;;;;;;;4.40;2.37;;;18.30;78.20;;;21.28;56.55;102157.09;5095411;28;20613;-65
2022/07/11 00:23:20;;;;;;;3.40;2.27;;;18.30;78.10;;;21.29;56.05;102150.72;5095495;28;20192;-64
2022/07/11 00:25:47;;;;;;;3.57;2.47;;;18.30;78.10;;;21.28;56.62;102150.91;5094654;28;20531;-65
2022/07/11 00:28:14;;;;;;;3.80;2.57;;;18.40;78.10;;;21.29;56.10;102147.22;5094883;28;20196;-64
2022/07/11 00:30:42;;;;;;;3.80;2.63;;;18.30;78.70;;;21.27;56.06;102150.13;5095802;28;20195;-64
2022/07/11 00:33:11;;;;;;;6.57;2.87;;;18.40;78.10;;;21.28;56.56;102151.75;5095213;28;20180;-64
2022/07/11 00:35:38;;;;;;;4.37;2.33;;;18.40;78.10;;;21.26;56.37;102148.47;5095004;28;20196;-64
2022/07/11 00:38:06;;;;;;;4.53;2.50;;;18.40;78.00;;;21.27;56.49;102150.13;5095024;28;20188;-64
2022/07/11 00:40:33;;;;;;;4.70;2.30;;;18.30;78.00;;;21.26;56.44;102153.81;5105607;28;20199;-64
2022/07/11 00:43:03;;;;;;;3.67;2.30;;;18.30;78.00;;;21.26;56.70;102147.63;5116745;28;20212;-64
2022/07/11 00:45:30;;;;;;;2.67;1.87;;;18.30;78.20;;;21.26;56.26;102147.63;5116840;28;20188;-64
2022/07/11 00:47:58;;;;;;;8.57;2.93;;;18.30;78.10;;;21.26;56.70;102148.47;5114040;28;20215;-64
2022/07/11 00:50:28;;;;;;;3.80;2.43;;;18.40;78.30;;;21.24;56.35;102139.00;5116207;28;20188;-65
2022/07/11 00:52:57;;;;;;;4.13;2.37;;;18.30;78.20;;;21.23;56.62;102146.19;5115625;28;20210;-65
2022/07/11 00:55:26;;;;;;;2.67;2.30;;;18.30;78.20;;;21.24;56.73;102144.34;5115113;28;20192;-65
2022/07/11 00:57:55;;;;;;;4.43;2.10;;;18.30;78.20;;;21.23;56.61;102143.50;5114650;28;20187;-65
2022/07/11 01:00:22;;;;;;;4.23;2.03;;;18.40;78.30;;;21.22;56.47;102136.53;5114453;28;20184;-66
2022/07/11 01:02:50;;;;;;;4.50;2.63;;;18.30;78.30;;;21.22;56.90;102139.22;5114603;28;20290;-64
2022/07/11 01:05:17;;;;;;;3.07;2.03;;;18.30;78.40;;;21.25;56.68;102138.75;5095379;28;20197;-64
2022/07/11 01:07:46;;;;;;;4.13;2.17;;;18.30;78.40;;;21.25;56.69;102138.75;5093413;28;20564;-64
2022/07/11 01:10:13;;;;;;;4.17;2.60;;;18.30;78.30;;;21.30;57.01;102138.97;5094082;28;20195;-65
2022/07/11 01:12:41;;;;;;;5.70;2.60;;;18.40;78.50;;;21.33;56.47;102146.59;5093736;28;20208;-65
2022/07/11 01:15:10;;;;;;;3.53;2.70;;;18.40;79.20;;;21.36;56.67;102146.16;5094505;28;20633;-64
2022/07/11 01:17:38;;;;;;;3.47;2.50;;;18.40;78.30;;;21.36;56.06;102138.13;5094010;28;20187;-64
2022/07/11 01:20:07;;;;;;;4.00;2.30;;;18.40;78.20;;;21.38;56.13;102138.75;5095148;28;20267;-63
2022/07/11 01:22:40;;;;;;;6.63;2.57;;;18.40;78.20;;;21.37;56.44;102134.41;5093697;28;20211;-64
2022/07/11 01:25:08;;;;;;;4.07;2.33;;;18.40;78.10;;;21.37;55.99;102134.41;5094015;28;20204;-64
2022/07/11 01:27:36;;;;;;;3.70;2.30;;;18.40;78.00;;;21.37;56.30;102137.09;5094080;28;20218;-64
2022/07/11 01:30:06;;;;;;;5.93;2.87;;;18.40;78.00;;;21.38;56.34;102136.06;5094235;28;20521;-63
2022/07/11 01:32:33;;;;;;;3.83;1.87;;;18.40;78.00;;;21.38;56.16;102130.69;5094165;28;20685;-64
2022/07/11 01:35:00;;;;;;;3.17;2.30;;;18.40;78.10;;;21.38;56.41;102130.69;5094333;28;20189;-64
2022/07/11 01:37:28;;;;;;;2.70;2.30;;;18.40;78.00;;;21.38;56.47;102132.56;5094773;28;20218;-64
2022/07/11 01:39:55;;;;;;;2.30;2.00;;;18.40;78.00;;;21.36;56.53;102127.41;5094362;28;20184;-64
2022/07/11 01:42:24;;;;;;;5.73;2.33;;;18.40;77.90;;;21.35;55.92;102136.47;5093780;28;20217;-65
2022/07/11 01:44:51;;;;;;;3.63;2.10;;;18.40;78.00;;;21.36;56.42;102135.44;5094162;28;20191;-65
2022/07/11 01:47:19;;;;;;;3.30;2.20;;;18.40;78.10;;;21.37;56.29;102134.41;5094005;28;20572;-64
2022/07/11 01:49:46;;;;;;;5.37;2.13;;;18.40;78.10;;;21.38;56.29;102129.88;5094170;28;20188;-65
2022/07/11 01:52:14;;;;;;;3.87;2.97;;;18.40;78.00;;;21.36;56.56;102127.41;5093442;28;20218;-65
2022/07/11 01:54:41;;;;;;;4.63;2.70;;;18.40;78.00;;;21.35;56.58;102123.06;5109118;28;20187;-65
2022/07/11 01:57:09;;;;;;;5.83;3.00;;;18.40;78.20;;;21.35;56.55;102125.75;5113860;28;20659;-65
2022/07/11 01:59:38;;;;;;;2.80;2.47;;;18.40;78.00;;;21.34;56.54;102125.97;5114028;28;20188;-65
2022/07/11 02:02:06;;;;;;;5.30;2.50;;;18.40;78.10;;;21.32;56.17;102126.16;5114009;28;20207;-65
2022/07/11 02:04:33;;;;;;;2.20;2.00;;;18.40;78.20;;;21.30;56.32;102122.09;5114463;28;20229;-65
2022/07/11 02:07:01;;;;;;;4.60;2.33;;;18.40;78.30;;;21.31;56.20;102118.34;5113908;28;20222;-64
2022/07/11 02:09:28;;;;;;;3.83;2.47;;;18.40;78.40;;;21.31;56.17;102119.19;5110494;28;20195;-65
2022/07/11 02:11:56;;;;;;;2.87;2.57;;;18.40;78.30;;;21.31;56.53;102118.34;5093076;28;20208;-65
2022/07/11 02:14:23;;;;;;;6.43;2.93;;;18.40;78.30;;;21.29;56.12;102121.25;5092449;28;20196;-65
2022/07/11 02:16:52;;;;;;;5.23;2.60;;;18.40;78.20;;;21.29;56.13;102118.56;5093711;28;20211;-65
2022/07/11 02:19:19;;;;;;;5.20;3.13;;;18.40;78.30;;;21.30;56.28;102122.88;5096097;28;20196;-65
2022/07/11 02:21:47;;;;;;;4.43;2.70;;;18.40;78.40;;;21.30;56.52;102117.53;5096995;28;20212;-65
2022/07/11 02:24:14;;;;;;;3.57;2.37;;;18.40;78.30;;;21.30;56.89;102120.22;5097071;28;20192;-65
2022/07/11 02:26:41;;;;;;;4.50;3.07;;;18.40;78.60;;;21.30;56.39;102119.41;5098231;28;20208;-65
2022/07/11 02:29:09;;;;;;;6.03;2.77;;;18.30;78.50;;;21.29;56.21;102123.94;5096748;28;20195;-65
2022/07/11 02:31:37;;;;;;;4.50;2.83;;;18.40;78.50;;;21.27;56.54;102115.28;5097053;28;20583;-65
2022/07/11 02:34:05;;;;;;;3.43;2.50;;;18.40;78.40;;;21.29;56.40;102117.75;5098483;28;20192;-64
2022/07/11 02:36:33;;;;;;;2.77;2.53;;;18.40;79.30;;;21.30;56.90;102122.88;5097561;28;20192;-65
2022/07/11 02:39:00;;;;;;;3.07;2.10;;;18.40;78.40;;;21.30;56.84;102122.88;5097016;28;20196;-65
2022/07/11 02:41:29;;;;;;;6.00;2.90;;;18.40;78.30;;;21.32;56.92;102114.66;5096747;28;20207;-64
2022/07/11 02:43:56;;;;;;;2.97;2.20;;;18.40;78.30;;;21.32;56.22;102112.78;5097353;28;20195;-64
2022/07/11 02:46:24;;;;;;;2.87;2.57;;;18.40;78.30;;;21.31;56.48;102113.81;5096657;28;20718;-64
2022/07/11 02:48:51;;;;;;;5.13;2.90;;;18.40;78.20;;;21.28;56.37;102108.88;5096852;28;20192;-64
2022/07/11 02:51:20;;;;;;;6.20;2.77;;;18.40;78.00;;;21.26;56.22;102121.66;5096347;28;20209;-63
2022/07/11 02:53:47;;;;;;;4.53;2.93;;;18.40;78.00;;;21.24;56.43;102115.72;5096906;28;20255;-63
2022/07/11 02:56:15;;;;;;;4.83;3.13;;;18.40;78.30;;;21.25;56.59;102125.38;5096987;28;20223;-64
2022/07/11 02:58:42;;;;;;;5.33;2.93;;;18.40;78.30;;;21.26;56.67;102121.66;5097590;28;20184;-64
2022/07/11 03:01:08;;;;;;;2.67;2.27;;;18.40;78.50;;;21.27;56.52;102130.53;5095921;28;20212;-64
2022/07/11 03:03:36;;;;;;;4.50;2.57;;;18.30;78.50;;;21.30;56.65;102132.81;5096474;28;20192;-63
2022/07/11 03:06:04;;;;;;;3.57;2.70;;;18.30;79.20;;;21.32;56.90;102126.16;5096079;28;20188;-64
2022/07/11 03:08:33;;;;;;;3.93;3.00;;;18.40;78.50;;;21.34;56.39;102123.31;5095909;28;20216;-64
2022/07/11 03:11:00;;;;;;;3.57;2.87;;;18.40;79.20;;;21.34;56.63;102129.50;5095740;28;20203;-64
2022/07/11 03:13:33;;;;;;;4.53;2.77;;;18.40;78.30;;;21.36;56.66;102132.78;5096428;28;20179;-64
2022/07/11 03:16:01;;;;;;;5.10;2.83;;;18.40;78.30;;;21.35;56.14;102131.13;5096993;28;20188;-64
2022/07/11 03:18:29;;;;;;;6.40;2.90;;;18.40;78.30;;;21.35;56.09;102141.84;5096064;28;20189;-63
2022/07/11 03:20:56;;;;;;;4.67;3.27;;;18.40;78.20;;;21.33;56.69;102141.22;5095305;28;20264;-63
2022/07/11 03:23:24;;;;;;;5.63;3.03;;;18.40;78.30;;;21.32;56.11;102136.88;5096083;28;20202;-63
2022/07/11 03:25:52;;;;;;;3.40;2.90;;;18.40;78.30;;;21.32;56.47;102130.72;5096174;28;20519;-64
2022/07/11 03:28:20;;;;;;;5.87;3.70;;;18.40;78.50;;;21.33;56.71;102138.53;5095865;28;20220;-64
2022/07/11 03:30:47;;;;;;;4.63;3.27;;;18.40;78.70;;;21.36;56.75;102143.50;5094464;28;20548;-64
2022/07/11 03:33:15;;;;;;;7.20;4.07;;;18.40;78.80;;;21.37;56.76;102145.13;5096552;28;20266;-63
2022/07/11 03:35:42;;;;;;;5.87;4.07;;;18.40;78.90;;;21.37;56.44;102153.16;5095579;28;20189;-64
2022/07/11 03:38:11;;;;;;;2.97;2.67;;;18.40;79.20;;;21.36;56.99;102162.25;5095872;28;20185;-63
2022/07/11 03:40:40;;;;;;;5.47;2.87;;;18.40;79.20;;;21.35;56.79;102157.06;5095569;28;20189;-62
2022/07/11 03:43:09;;;;;;;6.17;3.47;;;18.40;79.50;;;21.36;57.54;102158.75;5095652;28;20192;-63
2022/07/11 03:45:37;;;;;;;3.93;2.70;;;18.40;79.70;;;21.37;57.62;102155.84;5095434;28;20196;-63
2022/07/11 03:48:05;;;;;;;3.50;2.83;;;18.40;79.70;;;21.38;57.38;102160.19;5095361;28;20208;-64
2022/07/11 03:50:33;;;;;;;3.77;2.90;;;18.50;80.00;;;21.36;57.16;102156.88;5092815;28;20192;-64
2022/07/11 03:53:01;;;;;;;5.90;3.40;;;18.50;80.20;;;21.33;57.90;102159.97;5096060;28;20204;-64
2022/07/11 03:55:31;;;;;;;4.37;3.60;;;18.40;80.20;;;21.33;57.58;102159.97;5095743;28;20205;-64
2022/07/11 03:57:58;;;;;;;5.07;3.10;;;18.40;80.50;;;21.32;57.49;102152.97;5095134;28;20547;-64
2022/07/11 04:00:27;;;;;;;4.37;2.47;;;18.40;80.60;;;21.32;57.95;102152.16;5094601;28;20193;-64
2022/07/11 04:02:55;;;;;;;7.07;2.30;;;18.40;80.90;;;21.32;58.33;102147.59;5095091;28;20710;-64
2022/07/11 04:05:22;;;;;;;2.87;2.57;;;18.40;80.70;;;21.33;58.33;102143.91;5096357;28;20557;-64
2022/07/11 04:07:50;;;;;;;2.67;1.90;;;18.40;80.80;;;21.39;57.76;102137.72;5095452;28;20207;-64
2022/07/11 04:10:17;;;;;;;4.10;2.53;;;18.40;80.90;;;21.45;58.11;102139.53;5095297;28;20192;-64
2022/07/11 04:12:45;;;;;;;2.53;2.33;;;18.50;80.60;;;21.46;57.80;102138.53;5094090;28;20212;-64
2022/07/11 04:15:13;;;;;;;3.33;2.70;;;18.50;80.40;;;21.44;57.30;102140.56;5094725;28;20540;-64
2022/07/11 04:17:41;;;;;;;4.13;2.30;;;18.50;80.40;;;21.44;57.85;102140.56;5094616;28;20212;-64
2022/07/11 04:20:10;;;;;;;3.10;2.20;;;18.50;80.80;;;21.45;57.79;102136.88;5094799;28;20192;-64
2022/07/11 04:22:37;;;;;;;3.07;2.47;;;18.50;80.60;;;21.47;57.83;102139.31;5105365;28;20550;-64
2022/07/11 04:25:05;;;;;;;2.50;1.93;;;18.50;80.20;;;21.47;57.38;102140.16;5114753;28;20194;-64
2022/07/11 04:27:33;;;;;;;4.43;2.50;;;18.50;81.10;;;21.47;57.74;102137.47;5114479;28;20580;-64
2022/07/11 04:30:08;;;;;;;3.93;2.67;;;18.50;80.20;;;21.51;57.12;102152.06;5115141;27;20199;-63
2022/07/11 04:32:36;;;;;;;2.50;2.30;;;18.50;80.20;;;21.50;57.29;102155.81;5114524;28;20224;-63
2022/07/11 04:35:06;;;;;;;2.53;2.33;;;18.50;80.20;;;21.49;57.29;102135.41;5114632;28;20676;-64
2022/07/11 04:37:33;;;;;;;4.60;3.20;;;18.50;80.20;;;21.51;57.49;102152.06;5112915;28;20184;-64
2022/07/11 04:40:01;;;;;;;5.33;2.77;;;18.50;80.30;;;21.53;58.10;102144.69;5113985;28;20628;-64
2022/07/11 04:42:28;;;;;;;3.57;2.73;;;18.50;80.70;;;21.57;57.41;102143.22;5113976;28;20207;-63
2022/07/11 04:44:55;;;;;;;5.17;3.40;;;18.60;80.90;;;21.65;57.71;102146.69;5114336;28;20273;-64
2022/07/11 04:47:23;;;;;;;3.40;2.60;;;18.60;81.00;;;21.67;57.56;102148.13;5114438;28;20207;-64
2022/07/11 04:49:51;;;;;;;3.43;2.67;;;18.60;80.40;;;21.68;56.98;102144.38;5114381;28;20196;-64
2022/07/11 04:52:20;;;;;;;3.17;2.30;;;18.60;80.30;;;21.66;57.08;102151.81;5114133;28;20289;-64
2022/07/11 04:54:47;;;;;;;3.43;1.90;;;18.60;80.20;;;21.66;57.33;102159.88;5112623;28;20198;-64
2022/07/11 04:57:14;;;;;;;3.10;2.23;;;18.60;80.50;;;21.65;57.22;102160.09;5114341;28;20192;-64
2022/07/11 04:59:41;;;;;;;2.77;2.37;;;18.60;80.30;;;21.61;57.47;102154.31;5113550;27;20184;-64
2022/07/11 05:02:09;;;;;;;4.43;2.50;;;18.60;80.50;;;21.58;57.20;102163.59;5113548;28;20211;-64
2022/07/11 05:04:36;;;;;;;4.30;2.10;;;18.60;80.50;;;21.55;57.67;102160.53;5114100;28;20628;-64
2022/07/11 05:07:04;;;;;;;3.33;2.70;;;18.60;80.30;;;21.55;57.88;102164.03;5113941;28;20199;-64
2022/07/11 05:09:33;;;;;;;3.17;2.40;;;18.60;81.20;;;21.54;58.25;102159.69;5113796;28;20629;-63
2022/07/11 05:12:01;;;;;;;2.77;2.57;;;18.60;81.20;;;21.52;57.93;102163.63;5110984;28;20216;-65
2022/07/11 05:14:28;;;;;;;2.33;1.90;;;18.50;81.20;;;21.48;57.95;102168.59;5113614;28;20199;-64
2022/07/11 05:16:55;;;;;;;2.47;2.10;;;18.50;81.50;;;21.45;58.72;102168.19;5113740;28;20196;-64
2022/07/11 05:19:23;;;;;;;2.40;2.20;;;18.50;81.60;;;21.46;58.55;102164.47;5113463;28;20222;-64
2022/07/11 05:21:50;;;;;;;4.90;2.80;;;18.50;81.80;;;21.47;59.25;102166.13;5113715;28;20251;-64
2022/07/11 05:24:18;;;;;;;3.63;2.40;;;18.60;82.20;;;21.50;58.82;102163.84;5113636;28;20269;-63
2022/07/11 05:26:47;;;;;;;3.63;2.60;;;18.60;82.30;;;21.53;58.95;102166.13;5111745;27;20195;-64
2022/07/11 05:29:14;;;;;;;3.07;2.10;;;18.60;81.80;;;21.55;58.48;102165.88;5113259;28;20223;-65
2022/07/11 05:31:44;;;;;;;3.73;2.00;;;18.60;81.50;;;21.53;58.78;102167.97;5112738;28;20271;-64
2022/07/11 05:34:12;;;;;;;2.27;2.03;;;18.60;81.60;;;21.55;58.56;102168.56;5113917;28;20212;-65
2022/07/11 05:36:39;;;;;;;3.47;2.30;;;18.60;81.90;;;21.62;59.08;102176.59;5113074;28;20208;-62
2022/07/11 05:39:07;;;;;;;2.90;2.60;;;18.70;82.00;;;21.69;58.73;102180.06;5113259;28;20180;-64
2022/07/11 05:41:34;;;;;;;2.80;2.60;;;18.70;82.10;;;21.75;58.51;102168.50;5112954;28;20212;-64
2022/07/11 05:44:03;;;;;;;7.93;7.23;;;18.70;81.60;;;21.80;58.42;102176.72;5112078;28;20199;-63
2022/07/11 05:46:31;;;;;;;8.50;7.10;;;18.80;81.80;;;21.87;58.16;102174.88;5113536;28;20187;-65
2022/07/11 05:48:58;;;;;;;3.13;2.83;;;18.80;81.70;;;21.94;58.48;102181.81;5112987;28;20212;-64
2022/07/11 05:51:26;;;;;;;2.43;2.23;;;18.90;81.60;;;22.00;57.74;102177.47;5112555;28;20711;-63
2022/07/11 05:53:53;;;;;;;2.63;2.47;;;18.90;81.10;;;22.08;57.50;102185.28;5112681;28;20199;-63
2022/07/11 05:56:20;;;;;;;3.63;2.70;;;19.00;81.30;;;22.15;57.67;102186.06;5095385;28;20197;-65
2022/07/11 05:58:48;;;;;;;2.80;2.60;;;19.00;81.20;;;22.20;57.18;102183.56;5092723;28;20195;-63
2022/07/11 06:01:16;;;;;;;2.27;2.07;;;19.10;80.30;;;22.19;56.88;102184.59;5091883;28;20231;-63
2022/07/11 06:03:44;;;;;;;4.03;2.80;;;19.10;80.10;;;22.17;57.04;102189.34;5092347;28;20204;-65
2022/07/11 06:06:12;;;;;;;3.87;2.30;;;19.10;80.00;;;22.15;56.89;102191.44;5092687;28;20242;-63
2022/07/11 06:08:40;;;;;;;3.23;2.80;;;19.10;80.10;;;22.14;56.81;102189.78;5096945;28;20208;-64
2022/07/11 06:11:10;;;;;;;2.37;2.17;;;19.10;80.00;;;22.14;57.50;102184.41;5112794;28;20204;-64
2022/07/11 06:13:37;;;;;;;3.10;2.80;;;19.10;80.40;;;22.16;56.97;102183.16;5112571;28;20232;-64
2022/07/11 06:16:06;;;;;;;4.00;3.10;;;19.10;80.30;;;22.19;57.11;102189.97;5112941;28;20233;-64
2022/07/11 06:18:36;;;;;;;2.70;2.43;;;19.10;80.10;;;22.19;56.85;102184.59;5112944;28;20222;-63
2022/07/11 06:21:05;;;;;;;3.43;2.73;;;19.10;80.00;;;22.23;57.23;102191.16;5112297;28;20214;-64
2022/07/11 06:23:36;;;;;;;2.57;2.37;;;19.20;80.30;;;22.27;57.15;102184.34;5112396;28;20188;-64
2022/07/11 06:26:04;;;;;;;4.13;2.97;;;19.20;80.20;;;22.30;56.99;102188.47;5097139;28;20199;-64
2022/07/11 06:28:32;;;;;;;3.20;2.87;;;19.20;79.70;;;22.29;56.83;102193.00;5092655;28;20216;-65
2022/07/11 06:30:59;;;;;;;3.40;3.10;;;19.20;79.80;;;22.28;56.85;102185.97;5092460;28;20563;-63
2022/07/11 06:33:27;;;;;;;4.87;3.03;;;19.30;79.80;;;22.27;57.20;102179.00;5092067;28;20211;-65
2022/07/11 06:35:56;;;;;;;4.57;2.87;;;19.20;79.90;;;22.30;57.15;102181.22;5092285;28;20196;-65
2022/07/11 06:38:23;;;;;;;4.20;2.90;;;19.30;80.10;;;22.34;56.91;102181.63;5092147;28;20188;-64
2022/07/11 06:40:51;;;;;;;5.17;3.90;;;19.30;80.00;;;22.37;57.08;102178.50;5093334;28;20191;-63
2022/07/11 06:43:18;;;;;;;3.77;3.43;;;19.30;80.10;;;22.42;57.06;102187.53;5107558;28;20245;-64
2022/07/11 06:45:46;;;;;;;3.53;3.07;;;19.30;79.90;;;22.45;56.60;102181.75;5092279;28;20205;-64
2022/07/11 06:48:14;;;;;;;4.53;3.30;;;19.40;79.60;;;22.49;56.55;102182.94;5091706;28;20276;-62
2022/07/11 06:50:42;;;;;;;3.00;2.57;;;19.40;79.70;;;22.55;56.54;102187.47;5091863;28;20212;-63
2022/07/11 06:53:12;;;;;;;2.33;2.13;;;19.40;79.60;;;22.61;56.06;102186.59;5092320;28;20216;-64
2022/07/11 06:55:39;;;;;;;2.20;1.93;;;19.50;79.10;;;22.65;55.90;102187.84;5091914;28;20188;-64
2022/07/11 06:58:06;;;;;;;2.37;2.17;;;19.60;78.50;;;22.68;55.80;102176.63;5101524;28;20203;-64
2022/07/11 07:00:50;;;;;;;1.87;1.70;;;19.60;78.30;;;22.75;55.41;102182.78;5112453;28;20198;-63
2022/07/11 07:03:17;;;;;;;2.40;2.20;;;19.70;78.20;;;22.83;55.32;102190.56;5113120;28;20211;-63
2022/07/11 07:05:47;;;;;;;6.67;4.10;;;19.70;77.80;;;22.92;54.97;102183.88;5113667;28;20357;-64
2022/07/11 07:08:16;;;;;;;4.10;3.23;;;19.80;77.60;;;23.01;54.67;102180.91;5115955;28;20207;-62
2022/07/11 07:10:44;;;;;;;2.33;2.10;;;19.80;76.90;;;23.05;54.26;102182.09;5114764;27;20194;-64
2022/07/11 07:13:11;;;;;;;2.73;1.63;;;19.90;76.40;;;23.09;53.76;102185.97;5114133;28;20195;-65
2022/07/11 07:15:38;;;;;;;1.20;1.10;;;19.90;75.70;;;23.12;53.61;102177.50;5115676;28;20197;-64
2022/07/11 07:18:06;;;;;;;2.90;1.73;;;20.00;75.40;;;23.16;53.42;102186.75;5115804;28;20637;-65
2022/07/11 07:20:33;;;;;;;3.53;1.90;;;20.00;75.40;;;23.21;53.21;102185.03;5115545;28;20183;-64
2022/07/11 07:23:01;;;;;;;2.70;2.50;;;20.00;75.30;;;23.28;53.03;102187.66;5115684;27;20211;-64
2022/07/11 07:25:29;;;;;;;1.97;1.67;;;20.10;75.10;;;23.32;52.92;102178.91;5093928;27;20215;-67
2022/07/11 07:27:57;;;;;;;1.80;1.40;;;20.10;74.90;;;23.32;53.05;102183.50;5079491;28;20200;-63
2022/07/11 07:30:25;;;;;;;3.07;1.50;;;20.10;74.90;;;23.35;52.89;102178.50;5082194;28;21925;-64
2022/07/11 07:32:52;;;;;;;2.23;1.23;;;20.10;75.00;;;23.44;52.86;102181.72;5081881;28;20231;-65
2022/07/11 07:35:19;;;;;;;3.00;1.30;;;20.20;75.10;;;23.50;52.66;102176.28;5083326;28;20843;-63
2022/07/11 07:37:47;;;;;;;1.43;1.20;;;20.20;75.10;;;23.50;52.56;102180.81;5081917;28;20201;-62
2022/07/11 07:40:14;;;;;;;1.53;1.43;;;20.20;74.80;;;23.42;52.66;102181.13;5079981;28;20564;-64
2022/07/11 07:42:43;;;;;;;2.37;1.70;;;20.30;74.50;;;23.37;52.66;102175.59;5077477;28;20236;-64
2022/07/11 07:45:12;;;;;;;2.93;1.60;;;20.20;74.40;;;23.32;52.78;102183.50;5080196;28;20195;-65
2022/07/11 07:47:40;;;;;;;1.80;1.27;;;20.20;74.60;;;23.30;52.84;102189.06;5078972;28;20204;-64
2022/07/11 07:50:09;;;;;;;4.10;3.20;;;20.20;74.70;;;23.31;53.12;102184.53;5092749;28;20339;-63
2022/07/11 07:52:37;;;;;;;2.10;1.93;;;20.20;74.90;;;23.33;53.03;102183.25;5094186;28;20239;-62
2022/07/11 07:55:07;;;;;;;1.80;1.40;;;20.20;75.00;;;23.37;52.63;102191.72;5081488;28;20196;-63
2022/07/11 07:57:34;;;;;;;1.50;1.20;;;20.20;74.90;;;23.31;52.88;102192.59;5083050;28;20207;-63
2022/07/11 08:02:50;;;;;;;1.90;1.80;;;20.20;75.30;;;23.24;53.68;102199.91;5081556;28;20983;-65
2022/07/11 08:05:18;;;;;;;2.30;1.67;;;20.20;76.00;;;23.32;53.75;102205.00;5081475;28;20765;-65
2022/07/11 08:07:46;;;;;;;2.70;1.90;;;20.10;76.40;;;23.41;53.82;102206.38;5082381;28;20204;-63
2022/07/11 08:10:14;;;;;;;1.70;1.60;;;20.20;76.90;;;23.47;53.95;102208.16;5081363;28;20227;-64
2022/07/11 08:12:42;;;;;;;3.10;2.80;;;20.20;77.00;;;23.46;53.86;102201.16;5080723;28;20223;-64
2022/07/11 08:15:12;;;;;;;2.77;2.13;;;20.20;77.00;;;23.45;54.02;102210.25;5079331;28;20208;-67
2022/07/11 08:17:41;;;;;;;3.00;2.67;;;20.20;77.30;;;23.41;54.20;102206.38;5079341;28;20204;-63
2022/07/11 08:20:10;;;;;;;1.80;1.70;;;20.20;77.30;;;23.36;54.22;102216.97;5080647;28;20203;-62
2022/07/11 08:22:37;;;;;;;2.43;1.40;;;20.20;77.30;;;23.33;54.47;102217.38;5077615;28;20231;-64
2022/07/11 08:25:05;;;;;;;3.07;1.13;;;20.20;77.50;;;23.41;54.52;102222.50;5080490;28;20212;-66
2022/07/11 08:27:33;;;;;;;2.43;1.90;;;20.20;77.40;;;23.58;54.20;102210.13;5080982;28;20239;-63
2022/07/11 08:30:08;;;;;;;3.50;1.47;;;20.20;77.30;;;23.84;53.31;102204.44;5080606;28;20556;-64
2022/07/11 08:32:40;;;;;;;2.40;1.33;;;20.30;76.60;;;24.05;52.64;102209.31;5079160;28;20227;-63
2022/07/11 08:35:11;;;;;;;1.33;1.23;;;20.50;76.10;;;24.25;52.36;102216.34;5078921;28;20690;-65
2022/07/11 08:37:38;;;;;;;0.80;0.80;;;20.60;75.80;;;24.38;51.91;102205.34;5078518;28;20196;-63
2022/07/11 08:40:08;;;;;;;3.33;1.53;;;20.70;75.00;;;24.47;51.22;102214.75;5079385;28;20219;-63
2022/07/11 08:42:41;;;;;;;4.27;1.40;;;20.80;74.60;;;24.52;51.56;102213.00;5079292;28;20534;-65
2022/07/11 08:45:12;;;;;;;2.70;1.37;;;20.90;74.20;;;24.53;51.14;102213.84;5079723;28;20203;-65
2022/07/11 08:47:42;;;;;;;1.47;1.00;;;21.00;73.70;;;24.49;50.63;102207.25;5080657;28;20271;-65
2022/07/11 08:50:12;;;;;;;1.10;0.80;;;21.10;73.00;;;24.39;50.72;102210.50;5078481;28;20212;-64
2022/07/11 08:52:40;;;;;;;1.60;1.50;;;21.00;72.90;;;24.32;51.40;102208.97;5079294;28;20220;-64
2022/07/11 08:55:09;;;;;;;2.00;1.90;;;21.10;73.70;;;24.28;52.22;102200.53;5078809;28;20196;-67
2022/07/11 08:57:38;;;;;;;1.70;1.60;;;21.00;74.70;;;24.35;52.66;102200.44;5078751;28;20227;-64
2022/07/11 09:00:09;;;;;;;1.93;1.20;;;21.00;75.20;;;24.45;52.07;102211.47;5076964;28;20188;-62
2022/07/11 09:02:40;;;;;;;1.80;1.20;;;21.00;75.60;;;24.59;52.33;102215.59;5078058;28;20216;-65
2022/07/11 09:05:11;;;;;;;1.83;1.47;;;21.10;75.70;;;24.67;51.68;102210.72;5075922;28;20204;-64
2022/07/11 09:07:43;;;;;;;1.73;1.63;;;21.20;75.50;;;24.68;51.81;102209.66;5076551;28;20207;-66
2022/07/11 09:10:12;;;;;;;2.20;1.40;;;21.20;75.30;;;24.67;51.78;102204.50;5076638;28;20551;-65
2022/07/11 09:12:59;;;;;;;1.87;1.67;;;21.20;74.90;;;24.52;51.39;102209.50;5078236;28;20212;-64
2022/07/11 09:15:36;;;;;;;1.80;1.70;;;21.30;74.30;;;24.40;52.17;102209.47;5076587;27;20826;-65
2022/07/11 09:18:26;;;;;;;4.50;2.80;;;21.20;74.20;;;24.34;52.62;102209.56;5079185;28;20196;-67
2022/07/11 09:26:33;;;;;;;3.63;3.13;;;21.20;75.60;;;24.58;52.11;102212.06;5079921;28;20219;-65
2022/07/11 09:29:04;;;;;;;5.27;2.27;;;21.20;75.60;;;24.65;52.36;102214.69;5077526;28;20227;-65
2022/07/11 09:31:34;;;;;;;2.03;1.80;;;21.30;75.40;;;24.68;51.87;102206.13;5079124;28;20220;-65
2022/07/11 09:34:06;;;;;;;2.27;1.80;;;21.30;74.90;;;24.65;51.85;102203.91;5080130;28;20197;-66
2022/07/11 09:36:37;;;;;;;2.23;1.97;;;21.40;74.50;;;24.60;51.63;102215.38;5079478;28;20795;-64
2022/07/11 09:39:07;;;;;;;1.10;1.00;;;21.40;74.50;;;24.54;52.17;102210.91;5079986;28;20595;-65
2022/07/11 09:41:36;;;;;;;1.80;0.93;;;21.30;74.20;;;24.52;52.40;102217.56;5079390;28;20235;-66
2022/07/11 09:44:14;;;;;;;2.40;1.20;;;21.30;74.50;;;24.81;51.98;102212.19;5078997;28;20189;-65
2022/07/11 09:46:45;;;;;;;1.67;1.30;;;21.30;75.40;;;25.09;51.42;102211.47;5078221;28;20208;-63
2022/07/11 09:49:13;;;;;;;1.33;0.93;;;21.40;75.20;;;25.23;50.66;102209.34;5078007;28;20718;-63
2022/07/11 09:51:43;;;;;;;1.97;1.20;;;21.60;74.20;;;25.35;50.54;102207.47;5077985;28;20216;-66
2022/07/11 09:54:11;;;;;;;2.00;1.80;;;21.70;73.80;;;25.47;50.07;102208.31;5076658;28;20197;-66
2022/07/11 09:56:41;;;;;;;1.23;1.13;;;21.80;73.40;;;25.55;50.09;102207.97;5093541;28;20261;-65
2022/07/11 09:59:24;;;;;;;2.27;1.63;;;21.90;72.40;;;25.49;49.87;102215.13;5078352;28;20200;-64
2022/07/11 10:01:52;;;;;;;2.43;2.23;;;21.90;71.70;;;25.42;49.50;102217.09;5076037;28;20220;-64
2022/07/11 10:04:20;;;;;;;2.50;2.30;;;22.00;72.60;;;25.31;50.67;102215.22;5077646;28;20215;-65
2022/07/11 10:06:49;;;;;;;3.07;2.40;;;22.00;73.00;;;25.23;50.73;102220.97;5076098;28;20287;-65
2022/07/11 10:09:17;;;;;;;2.27;1.90;;;22.00;73.90;;;25.17;51.11;102215.69;5076250;28;20211;-63
2022/07/11 10:11:44;;;;;;;1.60;1.50;;;21.90;73.90;;;25.17;51.65;102221.91;5077920;28;20220;-63
2022/07/11 10:14:12;;;;;;;1.77;1.63;;;21.80;73.80;;;25.24;51.61;102214.53;5077316;28;20204;-63
2022/07/11 10:16:56;;;;;;;1.87;1.40;;;21.80;74.30;;;25.36;51.88;102214.53;5075326;28;20900;-63
2022/07/11 10:19:40;;;;;;;1.03;1.00;;;21.90;74.70;;;25.49;51.31;102215.13;5076595;28;20197;-63
2022/07/11 10:22:30;;;;;;;1.33;1.23;;;22.00;74.00;;;25.63;50.27;102220.22;5076232;28;20718;-63
2022/07/11 10:25:07;;;;;;;1.43;1.00;;;22.10;73.70;;;25.76;50.05;102214.59;5075704;28;20215;-65
2022/07/11 10:27:51;;;;;;;1.33;0.90;;;22.10;73.50;;;25.91;49.76;102212.22;5076228;28;20216;-63